Airfield :
LOGIN :

Register | Disclaimer

   EN    FR    IT 

 










Legend :    VFR   Marginal VFR   IFR   Intensive IFR   Very Intensive IFR
Visi :
Ceiling :
>= 8 km
>= 3000ft
5 to 8 km
1000 to 3000 ft
1500m to 5 km
500 to 1000 ft
800 to 1500m
200 to 500 ft
< 800m
< 200 ft
Symbols :   Thunderstorms  Fog  Heavy snow  Heavy precipitations  Wind > 20 kt
SIGMETs :     Misc.  Thunderstorms  Icing  Turbulence  Mountain Waves  Volcanic Ashes






- Airport Elevation : 681 ft
- IATA code : OSL


ENGM - Oslo Gardermoen

CURRENT METAR :
  • 200550Z 20003KT 8000 SCT002 BKN011 M02/M02 Q1004 TEMPO BKN008

EXPIRED METARs :
  • 200520Z 18003KT 120V220 2000 0600S R19R/P2000N R01R/1000U R19L/P2000N R01L/0900U PRFG BKN003 M03/M03 Q1004 TEMPO 1400 BCFG
  • 200450Z VRB02KT 7000 0650SW R19R/P2000N R01R/P2000N R19L/P2000N R01L/0700N PRFG BKN002 M03/M03 Q1004 TEMPO 4000 BR
  • 200420Z 14004KT 6000 0900SW R19R/P2000N R01R/P2000N R19L/P2000N R01L/1600N PRFG BKN002 M03/M03 Q1004
  • 200350Z VRB02KT 9999 BKN003 M04/M04 Q1005
  • 200320Z VRB02KT 9999 BKN004 M04/M05 Q1005

TAF TAF ENGM
Valid from the 20 at 06:00 until the 21 at 06:00 UTC


2006/2106 VRB05KT 9999 SCT008 BKN020
BECMG 2006/2008 17012KT 4000 -SNRA SCT002 OVC008
TEMPO 2008/2016 1400 RASN BR OVC002
BECMG 2016/2018 8000 RA SCT004 OVC010
TEMPO 2016/2024 19018G30KT 2000 -RA BR OVC004
BECMG 2100/2103 25008KT CAVOK



MET'MAP, your aeronautical weather chart ! - Copyright ORBIFLY December 2007 - Disclaimer

ORBIFLY MET'MAP TEAM :

Programming & Development : Alexandra Zaïnal
Concept & original design : Baudouin d'Aumeries
Assistance for programming : Marc-Olivier Méhu
Technical & hardware support : Manuel Goepfert

Contact : metmap@orbifly.com




SOURCES & CREDITS :

   NOAA